Time;durP1;ratioP1;P1;durP2;ratioP2;P2;SDS_P1;SDS_P2;PMS_P1;PMS_P2;Temp;Humidity;BMP_temperature;BMP_pressure;BME280_temperature;BME280_humidity;BME280_pressure;Samples;Min_cycle;Max_cycle;Signal;HPM_P1;HPM_P2
2022/08/28 00:01:11;;;;;;;10.73;3.78;;;12.70;99.90;;;;;;5033192;28;20033;-64
2022/08/28 00:03:37;;;;;;;12.02;3.80;;;12.50;99.90;;;;;;5015433;28;20064;-64
2022/08/28 00:06:03;;;;;;;6.47;3.65;;;12.60;99.90;;;;;;5033129;28;20045;-64
2022/08/28 00:08:29;;;;;;;7.25;4.35;;;12.60;99.90;;;;;;5015499;28;20033;-64
2022/08/28 00:10:55;;;;;;;18.77;3.80;;;12.50;99.90;;;;;;5033280;28;20450;-64
2022/08/28 00:13:22;;;;;;;8.27;3.97;;;12.50;99.90;;;;;;5033106;28;20029;-64
2022/08/28 00:15:52;;;;;;;8.52;3.45;;;12.40;99.90;;;;;;5015359;28;20037;-64
2022/08/28 00:18:18;;;;;;;8.05;4.07;;;12.60;99.90;;;;;;5032884;28;20164;-64
2022/08/28 00:20:45;;;;;;;10.55;3.75;;;12.60;99.90;;;;;;5032734;28;20037;-64
2022/08/28 00:23:10;;;;;;;7.80;3.80;;;12.50;99.90;;;;;;5015566;28;20098;-64
2022/08/28 00:25:36;;;;;;;9.13;3.88;;;12.40;99.90;;;;;;5015215;28;20120;-64
2022/08/28 00:28:05;;;;;;;9.18;3.60;;;12.50;99.90;;;;;;5032940;28;20131;-64
2022/08/28 00:30:35;;;;;;;7.15;4.25;;;12.50;99.90;;;;;;5015155;28;20163;-64
2022/08/28 00:33:06;;;;;;;6.30;3.90;;;12.30;99.90;;;;;;5015230;28;20048;-64
2022/08/28 00:35:32;;;;;;;6.28;3.65;;;12.50;99.90;;;;;;5032885;28;20049;-64
2022/08/28 00:37:58;;;;;;;10.02;3.90;;;12.30;99.90;;;;;;5032690;28;20392;-64
2022/08/28 00:40:27;;;;;;;11.35;4.07;;;12.20;99.90;;;;;;5015160;28;20037;-64
2022/08/28 00:42:54;;;;;;;5.85;3.70;;;12.10;99.90;;;;;;5002246;28;20051;-64
2022/08/28 00:45:21;;;;;;;8.50;4.10;;;12.20;99.90;;;;;;5036768;28;20041;-64
2022/08/28 00:47:47;;;;;;;6.88;4.18;;;12.10;99.90;;;;;;5018922;28;20570;-64
2022/08/28 00:50:17;;;;;;;7.78;4.18;;;12.20;99.90;;;;;;5019081;28;20047;-64
2022/08/28 00:52:49;;;;;;;8.55;3.65;;;12.30;99.90;;;;;;5036763;28;20577;-64
2022/08/28 00:55:18;;;;;;;7.07;3.88;;;12.20;99.90;;;;;;5019510;28;20411;-64
2022/08/28 00:57:53;;;;;;;5.90;4.10;;;12.30;99.90;;;;;;5019189;28;20049;-64
2022/08/28 01:00:28;;;;;;;;;;;12.30;99.90;;;;;;5036962;28;20423;-64
2022/08/28 01:02:54;;;;;;;8.68;5.05;;;12.10;99.90;;;;;;5036664;28;19975;-64
2022/08/28 01:05:20;;;;;;;8.48;3.97;;;12.10;99.90;;;;;;5018766;28;20041;-64
2022/08/28 01:07:47;;;;;;;7.47;4.07;;;12.20;99.90;;;;;;5018952;28;20075;-63
2022/08/28 01:10:17;;;;;;;9.45;4.28;;;12.10;99.90;;;;;;5036426;28;20045;-63
2022/08/28 01:12:44;;;;;;;10.90;4.57;;;12.00;99.90;;;;;;5036381;28;20045;-64
2022/08/28 01:15:13;;;;;;;10.05;4.07;;;12.00;99.90;;;;;;5036221;28;20575;-64
2022/08/28 01:17:47;;;;;;;9.23;4.40;;;11.90;99.90;;;;;;5018631;28;20526;-64
2022/08/28 01:20:17;;;;;;;6.88;4.15;;;11.90;99.90;;;;;;5018727;28;20403;-64
2022/08/28 01:23:01;;;;;;;6.78;3.92;;;11.90;99.90;;;;;;5034888;28;20037;-64
2022/08/28 01:25:32;;;;;;;8.50;5.00;;;11.90;99.90;;;;;;5035919;28;20049;-64
2022/08/28 01:28:02;;;;;;;8.77;4.53;;;11.80;99.90;;;;;;5018502;28;20041;-64
2022/08/28 01:30:30;;;;;;;6.93;4.07;;;11.90;99.90;;;;;;5036170;28;20076;-64
2022/08/28 01:32:57;;;;;;;8.63;4.10;;;11.80;99.90;;;;;;5035975;28;20045;-64
2022/08/28 01:35:30;;;;;;;7.38;4.03;;;12.00;99.90;;;;;;5035927;28;20443;-64
2022/08/28 01:37:56;;;;;;;13.68;4.70;;;11.70;99.90;;;;;;5018186;28;20136;-64
2022/08/28 01:40:30;;;;;;;5.20;3.83;;;11.80;99.90;;;;;;5035817;28;20095;-63
2022/08/28 01:43:07;;;;;;;6.22;3.45;;;11.60;99.90;;;;;;5018310;28;20052;-64
2022/08/28 01:45:36;;;;;;;5.38;3.38;;;11.80;99.90;;;;;;5035758;28;20045;-64
2022/08/28 01:48:02;;;;;;;8.23;4.32;;;11.70;99.90;;;;;;5018230;28;20056;-64
2022/08/28 01:50:28;;;;;;;7.22;3.55;;;11.80;99.90;;;;;;5035604;28;20033;-64
2022/08/28 01:52:53;;;;;;;9.13;4.32;;;11.70;99.90;;;;;;5017865;28;20503;-64
2022/08/28 01:55:19;;;;;;;6.82;3.92;;;11.70;99.90;;;;;;5017931;28;20044;-63
2022/08/28 01:57:48;;;;;;;9.25;4.30;;;12.50;99.90;;;;;;5017867;28;20042;-64
2022/08/28 02:00:14;;;;;;;6.28;4.65;;;11.50;99.90;;;;;;5035674;28;20503;-63
2022/08/28 02:02:40;;;;;;;7.85;4.20;;;11.60;99.90;;;;;;5035399;28;20037;-63
2022/08/28 02:05:07;;;;;;;4.60;3.83;;;11.70;99.90;;;;;;5017456;28;20168;-63
2022/08/28 02:07:33;;;;;;;6.28;3.70;;;11.60;99.90;;;;;;5027385;28;20399;-63
2022/08/28 02:09:58;;;;;;;6.28;4.10;;;11.60;99.90;;;;;;5017630;28;20045;-63
2022/08/28 02:12:24;;;;;;;9.88;4.60;;;11.80;99.90;;;;;;5017440;28;20048;-63
2022/08/28 02:14:49;;;;;;;7.00;3.92;;;11.60;99.90;;;;;;5035295;28;20041;-63
2022/08/28 02:17:15;;;;;;;6.85;3.70;;;11.50;99.90;;;;;;5035270;28;20033;-63
2022/08/28 02:19:40;;;;;;;9.65;3.97;;;11.70;99.90;;;;;;5035007;28;20049;-63
2022/08/28 02:22:08;;;;;;;10.60;4.45;;;11.60;99.90;;;;;;5017626;28;20049;-63
2022/08/28 02:24:34;;;;;;;6.60;3.85;;;11.50;99.90;;;;;;5017279;28;20069;-63
2022/08/28 02:27:01;;;;;;;6.53;3.63;;;11.70;99.90;;;;;;5035262;28;20128;-63
2022/08/28 02:29:27;;;;;;;6.38;3.72;;;11.60;99.90;;;;;;5017362;28;20395;-63
2022/08/28 02:31:52;;;;;;;5.25;3.45;;;11.60;99.90;;;;;;5034855;28;20053;-62
2022/08/28 02:34:18;;;;;;;4.88;3.33;;;11.30;99.90;;;;;;5034846;28;20041;-63
2022/08/28 02:36:44;;;;;;;4.82;3.30;;;11.40;99.90;;;;;;5017278;28;20069;-63
2022/08/28 02:39:10;;;;;;;5.20;3.50;;;11.30;99.90;;;;;;5035017;28;20117;-62
2022/08/28 02:41:36;;;;;;;7.18;3.80;;;11.30;99.90;;;;;;5034809;28;20041;-62
2022/08/28 02:44:02;;;;;;;5.95;3.30;;;11.30;99.90;;;;;;5034870;28;20037;-62
2022/08/28 02:46:28;;;;;;;7.47;3.53;;;11.10;99.90;;;;;;5017242;28;20392;-63
2022/08/28 02:48:55;;;;;;;8.15;4.13;;;11.30;99.90;;;;;;5016683;28;20045;-63
2022/08/28 02:51:21;;;;;;;5.00;3.45;;;11.20;99.90;;;;;;5034446;28;20049;-62
2022/08/28 02:53:49;;;;;;;5.85;3.75;;;11.20;99.90;;;;;;5016707;28;20037;-63
2022/08/28 02:56:16;;;;;;;7.35;4.18;;;11.30;99.90;;;;;;5034717;28;20046;-62
2022/08/28 02:58:41;;;;;;;10.02;4.32;;;11.20;99.90;;;;;;5034471;28;20057;-63
2022/08/28 03:01:09;;;;;;;4.75;3.85;;;11.20;99.90;;;;;;5016495;28;20088;-63
2022/08/28 03:03:35;;;;;;;5.55;3.78;;;11.10;99.90;;;;;;5033987;28;20072;-64
2022/08/28 03:06:02;;;;;;;8.38;3.83;;;11.00;99.90;;;;;;5033761;28;20033;-64
2022/08/28 03:08:29;;;;;;;6.00;3.85;;;11.30;99.90;;;;;;5029081;28;20049;-64
2022/08/28 03:10:54;;;;;;;6.63;3.08;;;11.00;99.90;;;;;;5034091;28;20124;-63
2022/08/28 03:13:21;;;;;;;7.20;3.60;;;11.10;99.90;;;;;;5034407;28;20451;-64
2022/08/28 03:15:47;;;;;;;5.18;2.50;;;11.20;99.90;;;;;;5034023;28;20025;-63
2022/08/28 03:18:14;;;;;;;5.53;2.92;;;10.90;99.90;;;;;;5034019;28;20045;-62
2022/08/28 03:20:41;;;;;;;4.47;3.33;;;11.10;99.90;;;;;;5016388;28;20037;-63
2022/08/28 03:23:25;;;;;;;8.95;3.83;;;11.10;99.90;;;;;;5016585;28;20072;-63
2022/08/28 03:25:58;;;;;;;5.88;3.92;;;11.00;99.90;;;;;;5033922;28;20484;-62
2022/08/28 03:28:26;;;;;;;12.00;5.18;;;11.10;99.90;;;;;;5034071;28;20120;-64
2022/08/28 03:30:52;;;;;;;9.25;4.93;;;11.00;99.90;;;;;;5015983;28;20046;-63
2022/08/28 03:33:19;;;;;;;7.78;4.25;;;10.80;99.90;;;;;;5033917;28;20080;-62
2022/08/28 03:35:45;;;;;;;8.77;4.50;;;10.90;99.90;;;;;;5016276;28;20041;-63
2022/08/28 03:38:11;;;;;;;7.40;4.25;;;10.90;99.90;;;;;;5015984;28;20533;-62
2022/08/28 03:40:41;;;;;;;10.73;4.82;;;10.90;99.90;;;;;;5016096;28;20073;-63
2022/08/28 03:43:11;;;;;;;6.90;4.35;;;10.80;99.90;;;;;;5033470;28;20087;-62
2022/08/28 03:45:37;;;;;;;6.80;4.68;;;10.70;99.90;;;;;;5016203;28;20053;-62
2022/08/28 03:48:03;;;;;;;13.75;5.22;;;10.70;99.90;;;;;;5015924;28;20041;-62
2022/08/28 03:50:29;;;;;;;8.73;4.32;;;10.70;99.90;;;;;;5033385;28;20424;-63
2022/08/28 03:52:54;;;;;;;8.07;4.28;;;10.60;99.90;;;;;;5015598;28;20156;-62
2022/08/28 03:55:21;;;;;;;9.20;4.07;;;10.70;99.90;;;;;;5015900;28;20087;-63
2022/08/28 03:57:47;;;;;;;6.85;4.25;;;10.70;99.90;;;;;;5033449;28;20041;-63
2022/08/28 04:00:14;;;;;;;11.50;5.28;;;10.70;99.90;;;;;;5033303;28;20038;-63
2022/08/28 04:02:41;;;;;;;6.78;3.75;;;10.70;99.90;;;;;;5033349;28;20052;-62
2022/08/28 04:05:07;;;;;;;7.47;4.30;;;10.90;99.90;;;;;;5015373;28;20053;-63
2022/08/28 04:07:33;;;;;;;9.00;4.90;;;;;;;;;;5015417;28;20130;-63
2022/08/28 04:09:59;;;;;;;7.55;4.40;;;10.70;99.90;;;;;;5033039;28;20522;-63
2022/08/28 04:12:25;;;;;;;9.82;4.45;;;10.70;99.90;;;;;;5032890;28;20046;-62
2022/08/28 04:14:50;;;;;;;8.70;4.20;;;10.70;99.90;;;;;;5015712;28;20096;-63
2022/08/28 04:17:16;;;;;;;9.23;4.00;;;10.70;99.90;;;;;;5015215;28;20041;-62
2022/08/28 04:19:43;;;;;;;11.30;4.53;;;10.70;99.90;;;;;;5032351;28;20112;-62
2022/08/28 04:22:09;;;;;;;6.45;4.22;;;10.90;99.90;;;;;;5032987;28;20120;-63
2022/08/28 04:24:34;;;;;;;6.85;3.95;;;10.90;99.90;;;;;;5033148;28;20033;-62
2022/08/28 04:27:00;;;;;;;10.52;4.35;;;10.80;99.90;;;;;;5015402;28;20055;-62
2022/08/28 04:29:26;;;;;;;7.95;4.50;;;10.90;99.90;;;;;;5032938;28;20125;-63
2022/08/28 04:31:51;;;;;;;7.50;4.55;;;11.00;99.90;;;;;;5032790;28;20045;-63
2022/08/28 04:34:17;;;;;;;8.85;3.80;;;11.00;99.90;;;;;;5015212;28;20049;-62
2022/08/28 04:36:43;;;;;;;9.35;4.30;;;;;;;;;;5032809;28;20044;-63
2022/08/28 04:39:09;;;;;;;5.40;3.42;;;10.90;99.90;;;;;;5033114;28;20048;-63
2022/08/28 04:41:37;;;;;;;9.18;4.15;;;11.00;99.90;;;;;;5032536;28;20503;-63
2022/08/28 04:44:03;;;;;;;5.95;3.88;;;11.10;99.90;;;;;;5015080;28;20077;-63
2022/08/28 04:46:29;;;;;;;8.10;3.63;;;10.70;99.90;;;;;;5032669;28;20029;-63
2022/08/28 04:48:54;;;;;;;5.32;3.10;;;10.80;99.90;;;;;;5032880;28;20446;-63
2022/08/28 04:51:21;;;;;;;6.60;3.38;;;10.80;99.90;;;;;;5014793;28;20034;-63
2022/08/28 04:53:47;;;;;;;8.10;4.10;;;10.80;99.90;;;;;;5032806;28;20033;-62
2022/08/28 04:56:13;;;;;;;5.95;3.70;;;10.80;99.90;;;;;;5032725;28;20037;-63
2022/08/28 04:58:41;;;;;;;12.50;4.13;;;10.90;99.90;;;;;;5032496;28;20554;-63
2022/08/28 05:01:17;;;;;;;6.45;3.60;;;10.90;99.90;;;;;;5015153;28;20045;-63
2022/08/28 05:03:44;;;;;;;5.63;3.47;;;11.00;99.90;;;;;;5014973;28;20053;-62
2022/08/28 05:06:12;;;;;;;6.53;3.70;;;11.10;99.90;;;;;;5014141;28;20046;-63
2022/08/28 05:08:38;;;;;;;4.28;3.08;;;11.00;99.90;;;;;;5027901;28;20037;-62
2022/08/28 05:11:17;;;;;;;8.25;3.78;;;11.10;99.90;;;;;;5032370;28;20029;-63
2022/08/28 05:13:43;;;;;;;8.45;4.18;;;11.10;99.90;;;;;;5032518;28;20124;-63
2022/08/28 05:16:08;;;;;;;8.18;3.80;;;10.90;99.90;;;;;;5014800;28;20108;-62
2022/08/28 05:18:34;;;;;;;7.60;4.22;;;11.10;99.90;;;;;;5014775;28;20069;-62
2022/08/28 05:21:01;;;;;;;6.72;4.75;;;11.00;99.90;;;;;;5032281;28;20033;-63
2022/08/28 05:23:27;;;;;;;6.22;4.00;;;11.20;99.90;;;;;;5032596;28;20052;-63
2022/08/28 05:25:52;;;;;;;5.55;3.35;;;11.10;99.90;;;;;;5032165;28;20080;-62
2022/08/28 05:28:18;;;;;;;6.18;3.53;;;11.20;99.90;;;;;;5032631;28;20073;-62
2022/08/28 05:30:44;;;;;;;8.73;3.47;;;11.00;99.90;;;;;;5034858;28;20403;-62
2022/08/28 05:33:12;;;;;;;8.75;4.63;;;11.10;99.90;;;;;;5036067;28;20080;-62
2022/08/28 05:35:41;;;;;;;8.40;3.80;;;11.10;99.90;;;;;;5036241;28;20459;-63
2022/08/28 05:38:07;;;;;;;5.28;3.58;;;11.20;99.90;;;;;;5035902;28;20037;-63
2022/08/28 05:40:38;;;;;;;6.35;3.40;;;11.20;99.90;;;;;;5018091;28;20049;-62
2022/08/28 05:43:04;;;;;;;6.05;3.50;;;11.10;99.90;;;;;;5018177;28;20457;-63
2022/08/28 05:45:29;;;;;;;13.43;3.97;;;11.30;99.90;;;;;;5035754;28;20049;-63
2022/08/28 05:47:56;;;;;;;5.32;3.70;;;11.40;99.90;;;;;;5036053;28;20127;-63
2022/08/28 05:50:21;;;;;;;9.25;3.63;;;11.50;99.90;;;;;;5035737;28;20059;-63
2022/08/28 05:52:47;;;;;;;9.07;3.95;;;11.50;99.90;;;;;;5018001;28;20042;-63
2022/08/28 05:55:13;;;;;;;12.95;3.90;;;11.60;99.90;;;;;;5035518;28;20432;-63
2022/08/28 05:57:39;;;;;;;8.55;4.18;;;11.80;99.90;;;;;;5035622;28;20038;-62
2022/08/28 06:00:11;;;;;;;6.25;3.75;;;11.80;99.90;;;;;;5017832;28;20167;-63
2022/08/28 06:02:37;;;;;;;6.03;3.75;;;11.90;99.90;;;;;;5017774;28;20045;-63
2022/08/28 06:05:03;;;;;;;6.38;3.92;;;12.10;99.90;;;;;;5035330;28;20057;-63
2022/08/28 06:07:28;;;;;;;10.63;4.07;;;12.10;99.90;;;;;;5011683;28;20403;-63
2022/08/28 06:09:54;;;;;;;9.35;4.03;;;12.30;99.90;;;;;;5035513;28;20038;-63
2022/08/28 06:12:20;;;;;;;8.93;4.00;;;12.60;99.90;;;;;;5035155;28;20042;-63
2022/08/28 06:14:46;;;;;;;7.72;3.80;;;12.80;99.90;;;;;;5035198;28;20518;-62
2022/08/28 06:17:11;;;;;;;10.40;3.15;;;13.10;99.90;;;;;;5035244;28;20038;-63
2022/08/28 06:19:37;;;;;;;7.38;3.80;;;13.10;99.90;;;;;;5017500;28;20068;-63
2022/08/28 06:22:04;;;;;;;7.07;2.80;;;13.40;99.90;;;;;;5035082;28;20045;-63
2022/08/28 06:24:31;;;;;;;11.32;3.58;;;13.50;99.90;;;;;;5035310;28;20045;-63
2022/08/28 06:26:58;;;;;;;9.38;3.40;;;13.90;99.90;;;;;;5017361;28;20087;-63
2022/08/28 06:29:23;;;;;;;9.65;3.35;;;14.10;99.90;;;;;;5017242;28;20423;-64
2022/08/28 06:31:54;;;;;;;9.50;2.53;;;14.40;99.90;;;;;;5035106;28;20037;-62
2022/08/28 06:34:20;;;;;;;6.43;2.95;;;14.50;99.90;;;;;;5017327;28;20404;-63
2022/08/28 06:36:46;;;;;;;9.05;2.65;;;14.40;99.90;;;;;;5034813;28;20030;-63
2022/08/28 06:39:13;;;;;;;6.50;2.40;;;14.60;99.90;;;;;;5035118;28;20391;-63
2022/08/28 06:41:41;;;;;;;5.72;2.50;;;14.80;99.90;;;;;;5033674;28;20049;-63
2022/08/28 06:44:13;;;;;;;15.25;2.70;;;15.20;99.90;;;;;;5035141;28;20041;-63
2022/08/28 06:46:40;;;;;;;5.25;2.33;;;15.30;99.90;;;;;;5017228;28;20480;-63
2022/08/28 06:49:07;;;;;;;8.15;2.40;;;15.40;99.90;;;;;;5009076;28;20121;-63
2022/08/28 06:51:34;;;;;;;6.28;2.20;;;15.50;99.90;;;;;;5028717;28;20087;-63
2022/08/28 06:54:00;;;;;;;12.35;2.20;;;15.70;99.90;;;;;;5027104;28;20094;-63
2022/08/28 06:56:26;;;;;;;3.83;1.83;;;15.70;99.90;;;;;;5033826;28;20076;-64
2022/08/28 06:58:55;;;;;;;11.23;2.80;;;16.20;99.90;;;;;;5032082;28;20026;-64
2022/08/28 07:01:24;;;;;;;4.55;1.98;;;16.00;99.90;;;;;;5031619;28;20033;-64
2022/08/28 07:03:51;;;;;;;7.65;2.70;;;16.30;99.90;;;;;;5033970;28;20530;-64
2022/08/28 07:06:17;;;;;;;6.93;1.75;;;16.30;99.90;;;;;;5013397;28;20042;-64
2022/08/28 07:08:44;;;;;;;4.70;1.45;;;16.40;99.90;;;;;;5029997;28;20423;-64
2022/08/28 07:11:17;;;;;;;4.30;1.65;;;16.40;99.90;;;;;;5014976;28;20128;-64
2022/08/28 07:13:44;;;;;;;7.78;2.13;;;16.60;99.90;;;;;;5014832;28;20041;-64
2022/08/28 07:16:12;;;;;;;5.90;2.15;;;16.50;99.90;;;;;;5033632;28;20031;-64
2022/08/28 07:18:38;;;;;;;9.70;1.80;;;16.70;99.90;;;;;;5015490;28;20034;-64
2022/08/28 07:21:04;;;;;;;7.45;1.77;;;16.50;99.90;;;;;;5033649;28;20037;-64
2022/08/28 07:23:31;;;;;;;7.50;1.65;;;16.80;99.90;;;;;;5015772;28;20048;-64
2022/08/28 07:25:57;;;;;;;8.23;1.95;;;16.50;99.90;;;;;;5033234;28;20076;-64
2022/08/28 07:28:23;;;;;;;7.35;2.00;;;16.90;99.90;;;;;;5033507;28;20080;-64
2022/08/28 07:31:17;;;;;;;8.73;1.50;;;16.70;99.90;;;;;;5022153;28;20038;-64
2022/08/28 07:33:43;;;;;;;9.63;1.77;;;16.90;99.90;;;;;;4996824;28;20089;-63
2022/08/28 07:36:13;;;;;;;6.13;1.45;;;17.00;99.90;;;;;;5028131;28;20116;-64
2022/08/28 07:38:39;;;;;;;5.93;2.10;;;17.10;99.90;;;;;;5019243;28;20105;-63
2022/08/28 07:41:19;;;;;;;9.55;1.60;;;17.30;99.90;;;;;;5039473;28;20038;-63
2022/08/28 07:46:30;;;;;;;8.70;1.70;;;17.30;99.90;;;;;;5014314;28;20033;-63
2022/08/28 07:48:57;;;;;;;8.63;1.52;;;17.40;99.90;;;;;;5014579;28;20107;-64
2022/08/28 07:51:24;;;;;;;11.23;1.58;;;17.50;99.90;;;;;;5032627;28;20495;-63
2022/08/28 07:53:51;;;;;;;3.45;1.65;;;17.40;99.90;;;;;;5032502;28;20041;-64
2022/08/28 07:56:16;;;;;;;7.22;1.60;;;17.50;99.90;;;;;;5014827;28;20096;-63
2022/08/28 07:58:42;;;;;;;6.80;1.95;;;17.40;99.90;;;;;;5032550;28;20518;-63
2022/08/28 08:01:08;;;;;;;7.55;1.67;;;17.60;99.90;;;;;;5032591;28;20124;-63
2022/08/28 08:03:33;;;;;;;4.53;1.38;;;17.70;99.90;;;;;;5014196;28;20545;-63
2022/08/28 08:06:02;;;;;;;10.40;1.75;;;17.90;99.90;;;;;;5032176;28;20419;-63
2022/08/28 08:08:30;;;;;;;2.88;1.13;;;17.80;99.90;;;;;;5014634;28;20041;-63
2022/08/28 08:11:05;;;;;;;7.55;1.27;;;17.90;99.90;;;;;;5013590;28;20076;-64
2022/08/28 08:13:32;;;;;;;6.75;1.45;;;17.90;99.90;;;;;;5032324;28;20083;-64
2022/08/28 08:16:13;;;;;;;7.85;1.30;;;18.00;99.90;;;;;;5014802;28;20037;-64
2022/08/28 08:18:40;;;;;;;6.80;1.60;;;18.20;99.90;;;;;;4996650;28;20037;-64
2022/08/28 08:21:08;;;;;;;6.57;2.05;;;18.20;99.90;;;;;;5014411;28;20029;-64
2022/08/28 08:23:35;;;;;;;6.72;1.60;;;18.50;99.90;;;;;;4995301;28;20042;-64
2022/08/28 08:26:03;;;;;;;6.13;1.45;;;18.50;99.90;;;;;;5017110;28;20049;-65
2022/08/28 08:28:29;;;;;;;8.32;1.67;;;18.70;99.90;;;;;;5031892;28;20049;-65
2022/08/28 08:31:03;;;;;;;2.65;1.08;;;18.50;99.90;;;;;;5031853;28;20037;-65
2022/08/28 08:33:28;;;;;;;4.45;1.33;;;18.90;99.90;;;;;;5014102;28;20045;-65
2022/08/28 08:35:54;;;;;;;5.63;1.00;;;18.70;99.90;;;;;;5031899;28;20040;-64
2022/08/28 08:38:20;;;;;;;5.93;1.48;;;20.70;99.90;;;;;;5031763;28;20040;-64
2022/08/28 08:40:46;;;;;;;7.30;1.60;;;18.80;99.90;;;;;;5029655;28;20036;-65
2022/08/28 08:43:15;;;;;;;6.60;1.17;;;18.90;99.90;;;;;;5013749;28;20080;-65
2022/08/28 08:45:43;;;;;;;5.50;1.35;;;18.80;99.90;;;;;;5029536;28;20107;-65
2022/08/28 08:48:19;;;;;;;3.63;1.20;;;18.90;99.90;;;;;;5014453;28;20048;-65
2022/08/28 08:50:46;;;;;;;4.38;1.30;;;19.00;99.90;;;;;;5026591;28;20111;-64
2022/08/28 08:53:24;;;;;;;12.48;1.80;;;19.20;99.90;;;;;;5012436;28;20120;-65
2022/08/28 08:55:52;;;;;;;5.63;1.35;;;19.00;99.90;;;;;;5012180;28;20041;-64
2022/08/28 08:58:29;;;;;;;6.72;1.65;;;19.30;99.90;;;;;;5014900;28;20037;-64
2022/08/28 09:01:08;;;;;;;8.07;1.58;;;19.30;99.90;;;;;;4993921;28;20030;-65
2022/08/28 09:03:59;;;;;;;8.70;1.60;;;19.00;99.90;;;;;;5029223;28;20059;-65
2022/08/28 09:06:45;;;;;;;6.72;1.77;;;19.30;99.90;;;;;;5035904;28;20154;-65
2022/08/28 09:09:42;;;;;;;4.45;1.20;;;19.40;99.90;;;;;;5018114;28;20051;-65
2022/08/28 09:12:12;;;;;;;8.75;1.30;;;19.50;99.90;;;;;;5016494;28;20087;-65
2022/08/28 09:15:07;;;;;;;7.28;1.67;;;19.70;99.90;;;;;;5033276;28;20091;-64
2022/08/28 09:17:40;;;;;;;5.65;1.38;;;19.70;99.90;;;;;;5035280;28;20053;-64
2022/08/28 09:20:08;;;;;;;5.00;1.25;;;19.60;99.90;;;;;;5035016;28;20404;-63
2022/08/28 09:22:42;;;;;;;8.32;1.58;;;19.30;99.90;;;;;;5017551;28;20072;-63
2022/08/28 09:25:09;;;;;;;4.10;1.45;;;19.30;99.90;;;;;;5014642;28;20048;-65
2022/08/28 09:27:45;;;;;;;6.20;1.50;;;19.30;99.90;;;;;;5017373;28;20048;-65
2022/08/28 09:30:11;;;;;;;4.57;1.35;;;19.60;99.90;;;;;;5017917;28;20045;-64
2022/08/28 09:32:42;;;;;;;8.13;1.10;;;19.70;99.90;;;;;;5032684;28;20064;-64
2022/08/28 09:35:23;;;;;;;4.55;1.13;;;19.70;99.90;;;;;;5035664;28;20034;-64
2022/08/28 09:37:49;;;;;;;5.78;1.00;;;19.80;99.90;;;;;;5035643;28;20033;-64
2022/08/28 09:43:26;;;;;;;7.70;1.20;;;20.10;99.90;;;;;;5033232;28;20395;-64
2022/08/28 09:45:57;;;;;;;4.32;1.20;;;19.90;99.90;;;;;;5017599;28;20050;-64
2022/08/28 09:48:29;;;;;;;5.15;1.00;;;19.90;99.90;;;;;;5033082;28;20049;-64
2022/08/28 09:51:02;;;;;;;4.70;1.25;;;19.90;99.90;;;;;;5015069;28;20053;-65
2022/08/28 09:53:30;;;;;;;3.45;1.27;;;19.70;99.90;;;;;;5026984;28;20045;-64
2022/08/28 09:56:12;;;;;;;4.65;0.90;;;19.60;99.90;;;;;;5008271;28;20042;-65
2022/08/28 09:58:45;;;;;;;6.72;1.15;;;19.30;99.90;;;;;;5005369;28;20034;-65
2022/08/28 10:01:40;;;;;;;3.95;1.27;;;19.20;99.90;;;;;;5014602;28;20037;-64
2022/08/28 10:04:14;;;;;;;4.80;1.73;;;19.20;99.90;;;;;;5014478;28;20091;-64
2022/08/28 10:06:50;;;;;;;5.30;1.67;;;19.30;99.90;;;;;;5033265;28;20041;-64
2022/08/28 10:09:20;;;;;;;8.88;1.27;;;19.70;99.90;;;;;;5015150;28;20063;-64
2022/08/28 10:12:01;;;;;;;8.15;1.45;;;19.80;99.90;;;;;;4995578;28;20124;-65
2022/08/28 10:14:43;;;;;;;3.63;1.15;;;19.80;99.90;;;;;;5034770;28;20044;-65
2022/08/28 10:17:33;;;;;;;5.22;1.73;;;19.70;99.90;;;;;;5014628;28;20056;-65
2022/08/28 10:20:23;;;;;;;8.43;1.63;;;19.70;99.90;;;;;;5013960;28;20049;-65
2022/08/28 10:23:01;;;;;;;6.75;1.70;;;19.80;99.90;;;;;;5024333;28;20117;-64
2022/08/28 10:25:37;;;;;;;11.55;2.65;;;19.60;99.90;;;;;;4997234;28;20052;-64
2022/08/28 10:28:24;;;;;;;9.02;1.58;;;19.40;99.90;;;;;;5034305;28;20040;-64
2022/08/28 10:31:18;;;;;;;5.55;1.25;;;19.50;99.90;;;;;;5032635;28;20029;-64
2022/08/28 10:34:34;;;;;;;8.75;1.50;;;19.60;99.90;;;;;;5026341;28;20049;-64
2022/08/28 10:37:14;;;;;;;6.50;1.30;;;19.80;99.90;;;;;;4985719;28;20041;-65
2022/08/28 10:39:56;;;;;;;5.50;1.70;;;20.10;99.90;;;;;;5033129;28;20077;-64
2022/08/28 10:42:31;;;;;;;5.75;1.27;;;20.00;99.90;;;;;;5031073;28;20040;-64
2022/08/28 10:45:04;;;;;;;4.20;1.23;;;20.10;99.90;;;;;;5016407;28;20083;-66
2022/08/28 10:47:33;;;;;;;5.20;1.00;;;20.00;99.90;;;;;;5032422;28;20049;-65
2022/08/28 10:50:05;;;;;;;7.43;1.60;;;20.00;99.90;;;;;;5016560;28;20372;-65
2022/08/28 10:52:46;;;;;;;5.70;1.50;;;19.90;99.90;;;;;;5031732;28;20041;-65
2022/08/28 10:55:17;;;;;;;5.82;2.20;;;19.90;99.90;;;;;;5033937;28;20034;-65
2022/08/28 10:57:50;;;;;;;3.80;1.35;;;20.10;99.90;;;;;;5030680;28;20033;-65
2022/08/28 11:00:19;;;;;;;6.45;1.30;;;19.90;99.90;;;;;;5015933;28;20034;-65
2022/08/28 11:02:59;;;;;;;4.32;1.45;;;20.10;99.90;;;;;;5013325;28;20083;-64
2022/08/28 11:05:32;;;;;;;5.97;1.35;;;20.20;99.90;;;;;;5012541;28;20585;-64
2022/08/28 11:08:04;;;;;;;5.68;1.25;;;20.30;99.90;;;;;;5014128;28;20042;-64
2022/08/28 11:10:33;;;;;;;5.57;1.50;;;19.90;99.90;;;;;;5013944;28;20041;-65
2022/08/28 11:13:00;;;;;;;5.13;1.30;;;20.00;99.90;;;;;;5012518;28;20096;-65
2022/08/28 11:15:31;;;;;;;7.60;1.40;;;19.90;99.90;;;;;;5012565;28;20088;-65
2022/08/28 11:18:15;;;;;;;7.22;1.42;;;19.90;99.90;;;;;;5012712;28;20038;-65
2022/08/28 11:21:01;;;;;;;8.60;1.50;;;20.20;99.90;;;;;;5012871;28;20049;-65
2022/08/28 11:23:51;;;;;;;8.20;1.23;;;20.30;99.90;;;;;;4987998;28;20057;-65
2022/08/28 11:26:33;;;;;;;9.98;1.88;;;20.40;99.90;;;;;;5014212;28;20076;-65
2022/08/28 11:28:59;;;;;;;5.40;1.30;;;20.20;99.90;;;;;;5013259;28;20404;-65
2022/08/28 11:31:29;;;;;;;3.85;1.48;;;20.40;99.90;;;;;;5013425;28;20042;-65
2022/08/28 11:33:57;;;;;;;4.53;1.27;;;20.30;99.90;;;;;;5013963;28;20080;-65
2022/08/28 11:36:28;;;;;;;3.95;1.10;;;20.10;99.90;;;;;;5013522;28;20030;-65
2022/08/28 11:38:54;;;;;;;2.63;0.93;;;20.10;99.90;;;;;;5012351;28;20041;-64
2022/08/28 11:41:27;;;;;;;3.22;1.30;;;19.90;99.90;;;;;;4997508;28;20038;-64
2022/08/28 11:44:13;;;;;;;6.97;1.52;;;20.20;99.90;;;;;;5010127;28;20050;-64
2022/08/28 11:46:50;;;;;;;4.38;1.38;;;20.50;99.90;;;;;;5008494;28;20045;-64
2022/08/28 11:49:25;;;;;;;7.88;1.02;;;20.30;99.90;;;;;;5013719;28;20049;-64
2022/08/28 11:52:02;;;;;;;3.30;1.00;;;20.50;99.90;;;;;;5011376;28;20057;-64
2022/08/28 11:54:38;;;;;;;7.10;1.33;;;20.60;99.90;;;;;;5011958;28;20096;-64
2022/08/28 11:57:16;;;;;;;4.20;2.10;;;20.60;99.90;;;;;;5013254;28;20069;-64
2022/08/28 11:59:54;;;;;;;3.45;1.20;;;20.40;99.90;;;;;;5011966;28;20480;-64
2022/08/28 12:02:46;;;;;;;5.20;1.20;;;20.40;99.90;;;;;;5012099;28;20046;-64
2022/08/28 12:05:14;;;;;;;4.53;1.33;;;20.30;99.90;;;;;;4990803;28;20050;-64
2022/08/28 12:07:43;;;;;;;4.25;1.10;;;20.30;99.90;;;;;;5013520;28;20053;-64
2022/08/28 12:10:26;;;;;;;8.20;1.50;;;20.60;99.90;;;;;;5012176;28;20154;-64
2022/08/28 12:12:57;;;;;;;8.13;1.48;;;20.50;99.90;;;;;;5011868;28;20045;-64
2022/08/28 12:15:28;;;;;;;7.32;1.50;;;20.20;99.90;;;;;;5012291;28;20049;-64
2022/08/28 12:18:16;;;;;;;6.50;1.55;;;20.20;99.90;;;;;;5013207;28;20393;-64
2022/08/28 12:21:03;;;;;;;3.47;1.13;;;20.40;99.90;;;;;;4990263;28;20077;-64
2022/08/28 12:23:37;;;;;;;4.47;1.13;;;20.30;99.90;;;;;;5010172;28;20092;-64
2022/08/28 12:26:10;;;;;;;3.70;1.10;;;20.20;99.90;;;;;;5011446;28;20041;-64
2022/08/28 12:28:43;;;;;;;3.87;1.20;;;20.00;99.90;;;;;;5007612;28;20175;-65
2022/08/28 12:34:28;;;;;;;7.00;1.15;;;20.30;99.90;;;;;;5010114;28;20069;-65
2022/08/28 12:36:58;;;;;;;5.47;1.20;;;20.20;99.90;;;;;;5012573;28;20444;-65
2022/08/28 12:39:25;;;;;;;4.70;1.17;;;20.20;99.90;;;;;;5011910;28;20038;-65
2022/08/28 12:41:51;;;;;;;7.22;1.45;;;20.50;99.90;;;;;;5008304;28;20535;-66
2022/08/28 12:44:23;;;;;;;6.32;1.02;;;20.40;99.90;;;;;;5002926;28;20173;-65
2022/08/28 12:46:48;;;;;;;6.30;1.23;;;20.20;99.90;;;;;;5012346;28;20416;-64
2022/08/28 12:49:35;;;;;;;3.45;0.90;;;20.10;99.90;;;;;;4999894;28;20039;-66
2022/08/28 12:52:16;;;;;;;5.97;1.38;;;20.20;99.90;;;;;;4997559;28;20518;-65
2022/08/28 12:54:44;;;;;;;4.35;0.85;;;20.00;99.90;;;;;;5002494;28;20061;-65
2022/08/28 12:57:13;;;;;;;3.53;0.80;;;19.90;99.90;;;;;;4989800;28;20682;-68
2022/08/28 12:59:42;;;;;;;4.43;1.38;;;20.30;99.90;;;;;;5008319;28;20053;-66
2022/08/28 13:02:17;;;;;;;4.90;0.98;;;20.20;99.90;;;;;;5009530;28;20093;-65
2022/08/28 13:04:57;;;;;;;;;;;20.30;99.90;;;;;;5023803;28;20072;-66
2022/08/28 13:07:27;;;;;;;4.78;1.05;;;20.30;99.90;;;;;;5011851;28;19947;-66
2022/08/28 13:09:55;;;;;;;6.15;0.70;;;20.60;99.90;;;;;;5010886;28;20033;-67
2022/08/28 13:12:32;;;;;;;5.22;1.65;;;20.60;99.90;;;;;;5011262;28;20053;-65